createdAt,value
2018-07-07T05:02:58.475Z,82.26
2018-07-07T05:08:01.797Z,82.24
2018-07-07T05:13:05.119Z,81.71
2018-07-07T05:18:08.447Z,81.58
2018-07-07T05:23:11.796Z,81.35
2018-07-07T05:28:15.890Z,81.23
2018-07-07T05:33:19.223Z,79.94
2018-07-07T05:38:22.554Z,80.69
2018-07-07T05:43:26.674Z,79.76
2018-07-07T05:48:31.692Z,79.80
2018-07-07T05:53:35.024Z,79.23
2018-07-07T05:58:38.353Z,78.83
2018-07-07T06:03:42.449Z,77.68
2018-07-07T06:08:45.774Z,75.73
2018-07-07T06:13:49.134Z,75.34
2018-07-07T06:18:59.251Z,74.29
2018-07-07T06:24:02.743Z,73.21
2018-07-07T06:29:18.570Z,73.72
2018-07-07T06:34:21.898Z,69.21
2018-07-07T06:39:25.265Z,68.88
2018-07-07T06:44:28.635Z,70.73
2018-07-07T06:49:31.999Z,68.60
2018-07-07T06:54:35.340Z,68.98
2018-07-07T06:59:38.729Z,69.02
2018-07-07T07:04:42.044Z,69.16
2018-07-07T07:09:45.452Z,69.29
2018-07-07T07:14:49.628Z,69.36
2018-07-07T07:19:54.382Z,69.37
2018-07-07T07:24:57.889Z,65.83
2018-07-07T07:30:18.335Z,62.92
2018-07-07T07:35:22.431Z,63.30
2018-07-07T07:40:25.834Z,64.05
2018-07-07T07:45:29.959Z,61.84
2018-07-07T07:50:34.314Z,59.48
2018-07-07T07:55:38.692Z,57.98
2018-07-07T08:01:13.778Z,58.80
2018-07-07T08:06:17.107Z,59.25
2018-07-07T08:11:20.443Z,60.10
2018-07-07T08:16:23.781Z,59.40
2018-07-07T08:21:27.115Z,58.35
2018-07-07T08:26:30.449Z,53.24
2018-07-07T08:31:33.782Z,51.08
2018-07-07T08:36:37.131Z,50.11
2018-07-07T08:41:40.484Z,53.16
2018-07-07T08:46:43.806Z,50.26
2018-07-07T08:51:47.139Z,50.83
2018-07-07T08:56:50.485Z,52.03
2018-07-07T09:01:53.810Z,50.45
2018-07-07T09:06:57.138Z,50.23
2018-07-07T09:12:00.471Z,51.77
2018-07-07T09:17:03.793Z,49.04
2018-07-07T09:22:07.126Z,49.32
2018-07-07T09:27:11.223Z,48.24
2018-07-07T09:32:14.555Z,48.30
2018-07-07T09:37:17.891Z,48.98
2018-07-07T09:42:21.227Z,47.72
2018-07-07T09:47:34.782Z,47.04
2018-07-07T09:52:38.110Z,47.93
2018-07-07T09:57:41.443Z,47.44
2018-07-07T10:02:44.795Z,47.06
2018-07-07T10:07:48.163Z,46.73
2018-07-07T10:12:51.486Z,46.19
2018-07-07T10:17:54.810Z,45.76
2018-07-07T10:22:58.155Z,46.40
2018-07-07T10:28:01.484Z,46.78
2018-07-07T10:33:04.810Z,45.51
2018-07-07T10:38:08.585Z,45.11
2018-07-07T10:43:12.687Z,45.50
2018-07-07T10:48:16.022Z,45.56
2018-07-07T10:53:19.356Z,45.25
2018-07-07T10:58:22.694Z,44.76
2018-07-07T11:03:26.021Z,44.08
2018-07-07T11:08:29.354Z,41.92
2018-07-07T11:13:32.692Z,43.37
2018-07-07T11:18:36.778Z,42.38
2018-07-07T11:23:40.106Z,41.36
2018-07-07T11:28:43.445Z,42.79
2018-07-07T11:33:47.541Z,42.72
2018-07-07T11:38:50.874Z,41.68
2018-07-07T11:43:54.205Z,41.63
2018-07-07T11:48:58.294Z,42.06
2018-07-07T11:54:01.627Z,42.26
2018-07-07T11:59:15.644Z,40.68
2018-07-07T12:04:20.250Z,39.96
2018-07-07T12:09:25.575Z,39.70
2018-07-07T12:14:28.911Z,39.51
2018-07-07T12:19:32.238Z,37.59
2018-07-07T12:24:36.327Z,37.55
2018-07-07T12:29:39.695Z,38.95
2018-07-07T12:34:43.047Z,39.14
2018-07-07T12:39:51.114Z,39.39
2018-07-07T12:44:55.415Z,39.46
2018-07-07T12:50:00.702Z,38.59
2018-07-07T12:55:04.027Z,38.35
2018-07-07T13:00:09.051Z,37.90
2018-07-07T13:05:12.543Z,37.90
2018-07-07T13:10:19.095Z,37.91
2018-07-07T13:15:22.464Z,37.24
2018-07-07T13:20:43.664Z,36.64
2018-07-07T13:25:47.712Z,36.90
2018-07-07T13:30:51.154Z,36.28
2018-07-07T13:35:54.478Z,36.98
2018-07-07T13:40:58.928Z,36.97
2018-07-07T13:46:04.324Z,37.58
2018-07-07T13:51:08.799Z,37.05
2018-07-07T13:56:13.558Z,37.04
2018-07-07T14:01:17.954Z,37.54
2018-07-07T14:06:21.500Z,37.27
2018-07-07T14:11:27.643Z,37.45
2018-07-07T14:16:30.967Z,38.15
2018-07-07T14:21:34.294Z,39.00
2018-07-07T14:26:37.624Z,37.50
2018-07-07T14:31:40.979Z,36.05
2018-07-07T14:36:44.312Z,36.00
2018-07-07T14:41:47.653Z,37.19
2018-07-07T14:46:50.989Z,38.21
2018-07-07T14:51:55.089Z,37.59
2018-07-07T14:56:58.503Z,35.52
2018-07-07T15:02:01.837Z,35.22
2018-07-07T15:07:05.942Z,34.93
2018-07-07T15:12:09.269Z,33.21
2018-07-07T15:17:12.615Z,34.09
2018-07-07T15:22:15.946Z,35.36
2018-07-07T15:27:19.274Z,35.24
2018-07-07T15:32:22.711Z,34.43
2018-07-07T15:37:26.062Z,34.25
2018-07-07T15:42:30.147Z,35.49
2018-07-07T15:47:33.484Z,35.25
2018-07-07T15:52:36.809Z,36.35
2018-07-07T15:57:40.177Z,36.61
2018-07-07T16:02:43.529Z,37.53
2018-07-07T16:07:46.878Z,36.45
2018-07-07T16:12:50.211Z,36.63
2018-07-07T16:17:53.563Z,36.51
2018-07-07T16:22:56.890Z,35.80
2018-07-07T16:28:00.219Z,35.60
2018-07-07T16:33:03.549Z,35.12
2018-07-07T16:38:06.874Z,34.99
2018-07-07T16:43:10.195Z,34.84
2018-07-07T16:48:14.295Z,33.74
2018-07-07T16:53:17.642Z,33.93
2018-07-07T16:58:20.983Z,34.04
2018-07-07T17:03:24.312Z,35.03
2018-07-07T17:08:27.634Z,34.59
2018-07-07T17:13:30.976Z,34.76
2018-07-07T17:18:34.305Z,34.13
2018-07-07T17:23:38.451Z,33.23
2018-07-07T17:28:41.749Z,32.63
2018-07-07T17:33:45.091Z,32.30
2018-07-07T17:38:48.413Z,31.51
2018-07-07T17:43:51.751Z,32.01
2018-07-07T17:48:55.082Z,31.95
2018-07-07T17:53:58.415Z,32.68
2018-07-07T17:59:01.757Z,32.16
2018-07-07T18:04:05.177Z,32.61
2018-07-07T18:09:10.447Z,32.33
2018-07-07T18:14:13.782Z,34.94
2018-07-07T18:19:17.129Z,34.12
2018-07-07T18:24:20.451Z,34.02
2018-07-07T18:29:23.831Z,33.98
2018-07-07T18:34:27.210Z,34.05
2018-07-07T18:39:30.536Z,34.38
2018-07-07T18:44:33.885Z,34.32
2018-07-07T18:49:37.234Z,33.80
2018-07-07T18:54:40.558Z,34.62
2018-07-07T18:59:43.884Z,34.52
2018-07-07T19:04:47.223Z,34.99
2018-07-07T19:10:05.155Z,35.22
2018-07-07T19:15:08.575Z,35.59
2018-07-07T19:20:27.146Z,35.72
2018-07-07T19:31:00.740Z,36.78
2018-07-07T19:41:35.602Z,38.76
2018-07-07T19:46:44.872Z,38.83
2018-07-07T19:51:48.728Z,38.93
2018-07-07T19:56:52.073Z,39.37
2018-07-07T20:01:55.406Z,39.78
2018-07-07T20:06:58.733Z,40.20
2018-07-07T20:12:02.840Z,40.96
2018-07-07T20:17:06.162Z,41.39
2018-07-07T20:22:09.508Z,41.80
2018-07-07T20:27:12.860Z,42.45
2018-07-07T20:32:16.218Z,42.81
2018-07-07T20:37:20.307Z,43.15
2018-07-07T20:42:23.633Z,43.98
2018-07-07T20:47:26.958Z,43.95
2018-07-07T20:52:30.298Z,44.22
2018-07-07T20:57:33.620Z,44.64
2018-07-07T21:02:37.722Z,45.04
2018-07-07T21:07:41.068Z,45.56
2018-07-07T21:12:44.404Z,46.23
2018-07-07T21:17:47.791Z,46.48
2018-07-07T21:22:51.083Z,46.91
2018-07-07T21:27:55.170Z,47.24
2018-07-07T21:32:58.495Z,48.07
2018-07-07T21:38:01.828Z,48.08
2018-07-07T21:43:05.155Z,48.62
2018-07-07T21:48:09.245Z,48.86
2018-07-07T21:53:12.577Z,49.13
2018-07-07T21:58:15.906Z,49.60
2018-07-07T22:08:47.944Z,50.91
2018-07-07T22:13:54.813Z,50.75
2018-07-07T22:18:58.941Z,50.99
2018-07-07T22:24:02.276Z,51.28
2018-07-07T22:29:07.993Z,51.68
